createdAt,value
2018-04-29T00:05:01.829Z,51.70
2018-04-29T00:10:04.440Z,51.80
2018-04-29T00:15:08.851Z,51.40
2018-04-29T00:20:12.013Z,51.30
2018-04-29T00:25:14.579Z,51.10
2018-04-29T00:30:18.058Z,50.90
2018-04-29T00:35:21.381Z,49.60
2018-04-29T00:40:23.936Z,49.60
2018-04-29T00:45:26.856Z,49.70
2018-04-29T00:50:29.432Z,49.30
2018-04-29T00:55:32.463Z,49.60
2018-04-29T01:00:35.047Z,49.10
2018-04-29T01:05:37.636Z,48.70
2018-04-29T01:10:40.484Z,48.90
2018-04-29T01:15:43.804Z,48.90
2018-04-29T01:20:48.124Z,49.10
2018-04-29T01:25:51.482Z,48.30
2018-04-29T01:30:54.049Z,48.30
2018-04-29T01:35:57.386Z,47.80
2018-04-29T01:41:00.066Z,47.70
2018-04-29T01:46:07.111Z,47.20
2018-04-29T01:51:09.697Z,47.20
2018-04-29T01:56:19.913Z,48.30
2018-04-29T02:01:22.735Z,48.00
2018-04-29T02:06:25.944Z,48.80
2018-04-29T02:11:28.525Z,49.30
2018-04-29T02:16:31.076Z,49.50
2018-04-29T02:21:34.072Z,49.70
2018-04-29T02:26:52.196Z,50.00
2018-04-29T02:31:55.559Z,49.90
2018-04-29T02:36:58.573Z,50.00
2018-04-29T02:42:01.903Z,50.70
2018-04-29T02:47:04.467Z,51.80
2018-04-29T02:52:10.252Z,52.60
2018-04-29T02:57:12.810Z,52.60
2018-04-29T03:02:15.403Z,52.40
2018-04-29T03:07:17.965Z,51.50
2018-04-29T03:12:23.009Z,51.40
2018-04-29T03:17:25.561Z,51.30
2018-04-29T03:22:28.587Z,51.90
2018-04-29T03:27:31.177Z,52.10
2018-04-29T03:32:34.178Z,52.00
2018-04-29T03:37:36.744Z,52.00
2018-04-29T03:42:39.764Z,52.40
2018-04-29T03:47:42.350Z,53.20
2018-04-29T03:52:44.925Z,53.40
2018-04-29T03:57:59.425Z,53.60
2018-04-29T04:03:13.913Z,53.30
2018-04-29T04:08:16.920Z,53.30
2018-04-29T04:13:20.052Z,53.00
2018-04-29T04:18:22.646Z,53.00
2018-04-29T04:23:26.052Z,53.30
2018-04-29T04:28:28.611Z,53.40
2018-04-29T04:33:32.824Z,53.70
2018-04-29T04:38:37.635Z,54.40
2018-04-29T04:43:42.026Z,54.30
2018-04-29T04:48:46.269Z,54.50
2018-04-29T04:53:48.848Z,54.50
2018-04-29T04:58:52.184Z,53.60
2018-04-29T05:03:55.042Z,53.60
2018-04-29T05:08:58.246Z,53.30
2018-04-29T05:14:01.541Z,53.40
2018-04-29T05:19:04.117Z,53.30
2018-04-29T05:24:07.513Z,53.50
2018-04-29T05:29:10.834Z,54.20
2018-04-29T05:34:14.167Z,54.20
2018-04-29T05:39:17.397Z,54.20
2018-04-29T05:44:26.530Z,54.20
2018-04-29T05:49:29.337Z,54.70
2018-04-29T05:54:31.891Z,54.90
2018-04-29T05:59:34.463Z,54.00
2018-04-29T06:04:39.480Z,53.90
2018-04-29T06:09:42.057Z,53.10
2018-04-29T06:14:45.407Z,51.70
2018-04-29T06:19:49.301Z,51.70
2018-04-29T06:24:52.633Z,51.00
2018-04-29T06:29:55.981Z,50.80
2018-04-29T06:34:58.981Z,50.80
2018-04-29T06:40:01.536Z,50.10
2018-04-29T06:45:04.862Z,49.70
2018-04-29T06:50:08.193Z,49.30
2018-04-29T06:55:10.779Z,49.30
2018-04-29T07:00:14.277Z,49.20
2018-04-29T07:05:17.634Z,49.30
2018-04-29T07:10:20.198Z,49.30
2018-04-29T07:15:23.210Z,49.40
2018-04-29T07:20:27.563Z,48.80
2018-04-29T07:25:31.228Z,48.40
2018-04-29T07:30:33.797Z,48.40
2018-04-29T07:35:36.681Z,49.10
2018-04-29T07:40:40.014Z,53.10
2018-04-29T07:45:42.755Z,53.00
2018-04-29T07:50:45.305Z,53.90
2018-04-29T07:55:48.632Z,53.90
2018-04-29T08:00:51.256Z,53.90
2018-04-29T08:05:53.831Z,53.00
2018-04-29T08:10:56.710Z,52.30
2018-04-29T08:16:00.045Z,51.10
2018-04-29T08:21:02.648Z,51.10
2018-04-29T08:26:05.633Z,50.80
2018-04-29T08:31:08.956Z,50.20
2018-04-29T08:36:12.344Z,49.50
2018-04-29T08:41:14.860Z,49.40
2018-04-29T08:46:18.207Z,48.90
2018-04-29T08:51:20.774Z,48.90
2018-04-29T08:56:24.102Z,47.30
2018-04-29T09:01:26.677Z,47.10
2018-04-29T09:06:29.254Z,46.40
2018-04-29T09:11:32.569Z,46.30
2018-04-29T09:16:35.140Z,47.30
2018-04-29T09:21:37.705Z,47.50
2018-04-29T09:26:41.036Z,44.00
2018-04-29T09:31:43.607Z,44.00
2018-04-29T09:36:47.095Z,43.30
2018-04-29T09:41:49.664Z,43.20
2018-04-29T09:46:52.218Z,42.10
2018-04-29T09:51:55.592Z,42.50
2018-04-29T09:56:58.150Z,43.10
2018-04-29T10:02:03.649Z,41.80
2018-04-29T10:07:06.225Z,41.10
2018-04-29T10:12:08.781Z,38.80
2018-04-29T10:17:11.346Z,38.70
2018-04-29T10:22:13.921Z,39.30
2018-04-29T10:27:16.494Z,38.40
2018-04-29T10:32:19.894Z,35.90
2018-04-29T10:37:22.432Z,35.80
2018-04-29T10:42:25.008Z,35.20
2018-04-29T10:47:28.336Z,31.40
2018-04-29T10:52:30.967Z,31.30
2018-04-29T10:57:33.533Z,30.60
2018-04-29T11:02:36.288Z,30.10
2018-04-29T11:07:38.856Z,29.70
2018-04-29T11:12:41.441Z,30.50
2018-04-29T11:17:44.319Z,31.10
2018-04-29T11:22:48.213Z,30.70
2018-04-29T11:27:51.084Z,30.70
2018-04-29T11:32:53.646Z,30.10
2018-04-29T11:37:56.998Z,31.70
2018-04-29T11:43:00.501Z,31.60
2018-04-29T11:48:03.083Z,31.50
2018-04-29T11:53:06.757Z,31.00
2018-04-29T11:58:09.341Z,31.00
2018-04-29T12:03:11.904Z,30.10
2018-04-29T12:08:15.245Z,29.70
2018-04-29T12:13:20.515Z,29.60
2018-04-29T12:23:50.686Z,29.70
2018-04-29T12:28:53.272Z,28.10
2018-04-29T12:33:57.429Z,27.20
2018-04-29T12:38:59.976Z,27.20
2018-04-29T12:44:02.537Z,27.10
2018-04-29T12:49:05.092Z,26.60
2018-04-29T12:54:08.768Z,26.30
2018-04-29T12:59:11.338Z,26.20
2018-04-29T13:04:13.897Z,25.80
2018-04-29T13:09:17.631Z,25.50
2018-04-29T13:14:23.440Z,25.60
2018-04-29T13:19:26.018Z,25.50
2018-04-29T13:24:29.954Z,26.00
2018-04-29T13:29:32.554Z,25.50
2018-04-29T13:34:35.690Z,26.20
2018-04-29T13:39:38.646Z,25.40
2018-04-29T13:44:42.658Z,24.70
2018-04-29T13:49:45.584Z,24.60
2018-04-29T13:54:49.197Z,24.30
2018-04-29T13:59:51.781Z,24.30
2018-04-29T14:04:54.432Z,23.80
2018-04-29T14:09:56.953Z,22.80
2018-04-29T14:14:59.529Z,23.20
2018-04-29T14:20:02.106Z,22.10
2018-04-29T14:25:09.584Z,22.80
2018-04-29T14:30:12.169Z,22.70
2018-04-29T14:35:14.732Z,22.40
2018-04-29T14:40:17.897Z,20.80
2018-04-29T14:45:21.809Z,20.90
2018-04-29T14:50:25.824Z,20.90
2018-04-29T14:55:29.847Z,21.30
2018-04-29T15:00:32.430Z,21.20
2018-04-29T15:05:35.013Z,21.20
2018-04-29T15:10:38.347Z,21.30
2018-04-29T15:15:40.905Z,21.20
2018-04-29T15:20:43.472Z,21.40
2018-04-29T15:25:46.350Z,20.90
2018-04-29T15:30:48.958Z,20.70
2018-04-29T15:35:51.558Z,20.70
2018-04-29T15:40:54.129Z,20.60
2018-04-29T15:45:56.689Z,20.60
2018-04-29T15:50:59.257Z,20.90
2018-04-29T15:56:01.821Z,20.40
2018-04-29T16:01:04.400Z,20.50
2018-04-29T16:06:07.740Z,21.10
2018-04-29T16:11:10.306Z,21.10
2018-04-29T16:16:13.632Z,22.00
2018-04-29T16:21:16.974Z,22.10
2018-04-29T16:26:19.650Z,22.10
2018-04-29T16:31:23.179Z,22.00
2018-04-29T16:36:26.510Z,22.50
2018-04-29T16:41:31.976Z,22.40
2018-04-29T16:46:34.557Z,23.10
2018-04-29T16:51:37.895Z,23.80
2018-04-29T16:56:43.321Z,23.70
2018-04-29T17:01:46.673Z,24.80
2018-04-29T17:06:49.261Z,24.70
2018-04-29T17:11:51.860Z,24.80
2018-04-29T17:16:54.428Z,24.60
2018-04-29T17:22:00.616Z,25.20
2018-04-29T17:27:04.491Z,24.90
2018-04-29T17:32:07.099Z,24.90
2018-04-29T17:37:09.953Z,25.10
2018-04-29T17:42:13.302Z,24.90
2018-04-29T17:47:15.891Z,24.90
2018-04-29T17:52:18.755Z,25.10
2018-04-29T17:57:21.317Z,25.00
2018-04-29T18:02:23.882Z,24.90
2018-04-29T18:07:27.211Z,24.80
2018-04-29T18:12:29.780Z,24.80
2018-04-29T18:17:33.124Z,24.90
2018-04-29T18:22:35.719Z,24.90
2018-04-29T18:27:38.320Z,24.90
2018-04-29T18:32:41.509Z,25.30
2018-04-29T18:37:44.113Z,25.20
2018-04-29T18:42:46.694Z,25.40
2018-04-29T18:47:50.057Z,25.70
2018-04-29T18:52:52.634Z,25.10
2018-04-29T18:57:55.202Z,24.90
2018-04-29T19:02:57.767Z,25.40
2018-04-29T19:08:00.334Z,25.40
2018-04-29T19:13:03.827Z,25.60
2018-04-29T19:18:07.166Z,26.10
2018-04-29T19:23:09.720Z,26.00
2018-04-29T19:28:14.946Z,25.80
2018-04-29T19:33:17.940Z,25.80
2018-04-29T19:38:20.521Z,25.70
2018-04-29T19:43:23.268Z,25.60
2018-04-29T19:48:25.851Z,25.30
2018-04-29T19:53:28.985Z,25.50
2018-04-29T19:58:31.578Z,25.50
2018-04-29T20:03:34.162Z,25.90
2018-04-29T20:08:38.963Z,25.70
2018-04-29T20:13:42.317Z,25.50
2018-04-29T20:18:47.521Z,25.50
2018-04-29T20:23:50.170Z,25.70
2018-04-29T20:28:52.737Z,25.60
2018-04-29T20:34:02.700Z,25.90
2018-04-29T20:39:08.910Z,25.80
2018-04-29T20:44:11.496Z,25.80
2018-04-29T20:49:15.414Z,25.60
2018-04-29T20:54:18.759Z,26.20
2018-04-29T20:59:21.325Z,25.70
2018-04-29T21:04:24.646Z,25.90
2018-04-29T21:09:27.229Z,25.90
2018-04-29T21:14:32.275Z,26.20
2018-04-29T21:19:36.461Z,26.70
2018-04-29T21:24:39.017Z,26.40
2018-04-29T21:29:41.893Z,26.40
2018-04-29T21:34:44.465Z,26.00
2018-04-29T21:39:47.117Z,25.80
2018-04-29T21:44:49.969Z,25.50
2018-04-29T21:49:52.545Z,25.50
2018-04-29T21:55:02.581Z,26.10
2018-04-29T22:00:05.729Z,26.50
2018-04-29T22:05:08.331Z,26.40
2018-04-29T22:10:11.673Z,26.70
2018-04-29T22:15:15.206Z,26.60
2018-04-29T22:20:20.393Z,26.60
2018-04-29T22:25:24.697Z,26.70
2018-04-29T22:30:27.445Z,27.00
2018-04-29T22:35:31.153Z,27.20
2018-04-29T22:40:34.381Z,27.40
2018-04-29T22:45:38.488Z,27.50
2018-04-29T22:50:41.301Z,27.60
2018-04-29T22:55:44.105Z,27.70
2018-04-29T23:00:47.763Z,28.20
2018-04-29T23:05:51.104Z,28.90
2018-04-29T23:10:53.681Z,28.90
2018-04-29T23:15:56.530Z,32.90
2018-04-29T23:20:59.557Z,38.30
2018-04-29T23:26:02.120Z,42.10
2018-04-29T23:31:04.693Z,43.30
2018-04-29T23:36:07.250Z,45.20
2018-04-29T23:41:09.848Z,48.00
2018-04-29T23:46:12.408Z,49.70
2018-04-29T23:51:14.992Z,50.00
2018-04-29T23:56:17.730Z,51.40
